Overview Statistics Trail Chart Weather Telemetry Raw packets
 

This is the latest recevied telemetry packets stored in our database for station/object DH9AAE-12. If no packets are shown the sender has not sent any telemetry packets the latest 10 day(s).

Telemetry packets is used to share measurements like repeteater parameters, battery voltage, radiation readings (or any other measurements).

<< 1 2 3 4 >>
Time Press* Temp.in* Hum* QNH* Temp.out*
1788574150 1003.7 hPa 29.1 C deg 31.6 % 1013.9 hPa 0 C deg
1788572334 1003.3 hPa 29.3 C deg 31.3 % 1013.5 hPa 0 C deg
1788570519 1003.2 hPa 29.4 C deg 31.4 % 1013.4 hPa 0 C deg
1788568704 1003.2 hPa 29 C deg 32.3 % 1013.5 hPa 0 C deg
1788566889 1003.1 hPa 29.1 C deg 32.3 % 1013.4 hPa 0 C deg
1788565073 1002.8 hPa 29.1 C deg 32.2 % 1013 hPa 0 C deg
1788563258 1002.6 hPa 29.2 C deg 32.4 % 1012.8 hPa 0 C deg
1788561443 1002.4 hPa 29.1 C deg 32.8 % 1012.6 hPa 0 C deg
1788559628 1002 hPa 29.2 C deg 32.5 % 1012.2 hPa 0 C deg
1788557813 1001.4 hPa 29.4 C deg 32.3 % 1011.6 hPa 0 C deg
1788555998 1001.1 hPa 29.5 C deg 32.1 % 1011.3 hPa 0 C deg
1788554183 1000.7 hPa 29.6 C deg 32 % 1010.9 hPa 0 C deg
1788552368 1000.5 hPa 29.5 C deg 32.1 % 1010.7 hPa 0 C deg
1788550552 1000.4 hPa 29.7 C deg 32 % 1010.6 hPa 0 C deg
1788548737 1000.1 hPa 29.7 C deg 32 % 1010.3 hPa 0 C deg
1788546922 999.7 hPa 29.8 C deg 32.1 % 1009.8 hPa 0 C deg
1788545107 999.3 hPa 29.8 C deg 32.2 % 1009.5 hPa 0 C deg
1788543292 998.7 hPa 29.8 C deg 32.2 % 1008.9 hPa 0 C deg
1788541477 998.5 hPa 29.9 C deg 32 % 1008.7 hPa 0 C deg
1788539661 998.5 hPa 29.6 C deg 32.6 % 1008.7 hPa 0 C deg
1788537846 998.5 hPa 29.8 C deg 32.7 % 1008.7 hPa 0 C deg
1788536028 998.4 hPa 29.9 C deg 32.6 % 1008.6 hPa 0 C deg
1788534213 998.6 hPa 30 C deg 32.8 % 1008.8 hPa 0 C deg
1788532398 999.4 hPa 28.9 C deg 35.7 % 1009.6 hPa 0 C deg
1788530583 998.3 hPa 29.4 C deg 34.2 % 1008.5 hPa 0 C deg
*Used Equation Coefficients:
Press: 0, 1, 0
Temp.in: 0, 1, 0
Hum: 0, 1, 0
QNH: 0, 1, 0
Temp.out: 0, 1, 0

  • The parameter names for the analog channels will be Value1, Value2, Value3 (up to Value5) if station has not sent a PARAM-packet that specifies the parameter names for each analog channel.
  • Each analog value is a decimal number between 000 and 255 (according to APRS specifications). The receiver use the telemetry equation coefficientsto to restore the original sensor values. If no EQNS-packet with equation coefficients is sent we will show the values as is (this corresponds to the equation coefficients a=0, b=1 and c=0).
    The sent equation coefficients is used in the equation: a * value2 + b * value + c.
  • The units for the analog values will not be shown if station has not sent a UNIT-packet specifying what unit's to use.
  • The parameter names for the digital bits will be Bit1, Bit2, Bit3 (up to Bit8) if station has not sent a PARAM-packet that specifies the parameter names for each digital bit.
  • All bit labels will be named "On" if station has not sent a UNIT-packet that specifies the label of each bit.
  • A bit is considered to be On when the bit is 1 if station has not sent a BITS-packet that specifies another "Bit sense" (a BITS-packet specify the state of the bits that match the BIT labels)